createdAt,value
2023-01-23T00:02:10.993Z,14.68
2023-01-23T00:04:37.971Z,13.73
2023-01-23T00:07:04.895Z,18.88
2023-01-23T00:09:31.934Z,11.77
2023-01-23T00:12:00.275Z,15.50
2023-01-23T00:14:27.319Z,17.05
2023-01-23T00:16:54.222Z,21.55
2023-01-23T00:19:21.195Z,22.70
2023-01-23T00:21:48.178Z,17.45
2023-01-23T00:24:15.115Z,18.38
2023-01-23T00:26:42.108Z,16.55
2023-01-23T00:29:10.455Z,17.27
2023-01-23T00:31:39.633Z,23.75
2023-01-23T00:34:11.369Z,22.60
2023-01-23T00:36:39.985Z,19.08
2023-01-23T00:39:14.980Z,21.38
2023-01-23T00:41:44.158Z,31.10
2023-01-23T00:44:12.538Z,23.25
2023-01-23T00:46:39.735Z,18.00
2023-01-23T00:49:07.670Z,22.85
2023-01-23T00:51:35.003Z,17.52
2023-01-23T00:54:03.172Z,17.48
2023-01-23T00:56:30.616Z,18.67
2023-01-23T00:58:57.522Z,22.88
2023-01-23T01:01:26.214Z,21.88
2023-01-23T01:03:53.354Z,17.60
2023-01-23T01:06:20.449Z,16.65
2023-01-23T01:08:47.834Z,17.05
2023-01-23T01:11:15.017Z,17.55
2023-01-23T01:13:42.443Z,19.13
2023-01-23T01:16:10.044Z,21.10
2023-01-23T01:18:38.497Z,15.63
2023-01-23T01:21:07.767Z,19.63
2023-01-23T01:23:35.233Z,18.00
2023-01-23T01:26:02.711Z,14.93
2023-01-23T01:28:30.870Z,19.88
2023-01-23T01:30:58.291Z,17.73
2023-01-23T01:33:28.367Z,21.05
2023-01-23T01:35:57.718Z,19.42
2023-01-23T01:38:24.683Z,20.88
2023-01-23T01:40:51.658Z,23.83
2023-01-23T01:43:20.744Z,23.27
2023-01-23T01:46:06.951Z,20.02
2023-01-23T01:48:38.293Z,15.65
2023-01-23T01:51:12.537Z,21.60
2023-01-23T01:53:40.605Z,17.02
2023-01-23T01:56:11.942Z,17.25
2023-01-23T01:58:40.134Z,20.02
2023-01-23T02:01:07.201Z,27.88
2023-01-23T02:03:35.235Z,19.55
2023-01-23T02:06:02.595Z,24.15
2023-01-23T02:08:37.231Z,20.30
2023-01-23T02:11:05.263Z,19.23
2023-01-23T02:13:36.828Z,19.95
2023-01-23T02:16:06.467Z,24.50
2023-01-23T02:18:35.976Z,24.77
2023-01-23T02:21:06.503Z,18.90
2023-01-23T02:23:56.929Z,22.52
2023-01-23T02:26:32.872Z,30.48
2023-01-23T02:29:00.334Z,24.10
2023-01-23T02:31:32.487Z,26.75
2023-01-23T02:34:00.261Z,20.65
2023-01-23T02:36:30.322Z,18.27
2023-01-23T02:39:06.371Z,22.48
2023-01-23T02:41:37.961Z,23.30
2023-01-23T02:44:09.671Z,19.77
2023-01-23T02:46:37.947Z,29.05
2023-01-23T02:49:05.056Z,20.60
2023-01-23T02:51:32.580Z,27.15
2023-01-23T02:53:59.719Z,23.90
2023-01-23T02:56:26.730Z,23.98
2023-01-23T02:59:13.714Z,24.48
2023-01-23T03:01:40.644Z,23.67
2023-01-23T03:04:08.599Z,23.38
2023-01-23T03:06:37.646Z,17.33
2023-01-23T03:09:08.075Z,36.60
2023-01-23T03:11:36.357Z,30.85
2023-01-23T03:14:07.799Z,26.00
2023-01-23T03:16:38.315Z,24.13
2023-01-23T03:19:09.080Z,26.45
2023-01-23T03:21:38.126Z,21.52
2023-01-23T03:24:05.935Z,24.48
2023-01-23T03:26:33.042Z,27.20
2023-01-23T03:29:18.715Z,24.80
2023-01-23T03:31:47.254Z,28.67
2023-01-23T03:34:14.671Z,23.33
2023-01-23T03:36:41.874Z,29.92
2023-01-23T03:39:28.465Z,37.05
2023-01-23T03:41:55.807Z,23.75
2023-01-23T03:44:25.400Z,25.63
2023-01-23T03:46:54.644Z,23.88
2023-01-23T03:49:23.232Z,22.55
2023-01-23T03:51:56.980Z,28.38
2023-01-23T03:54:24.088Z,29.13
2023-01-23T03:56:51.794Z,29.33
2023-01-23T03:59:37.128Z,30.98
2023-01-23T04:02:05.799Z,27.67
2023-01-23T04:04:34.508Z,25.33
2023-01-23T04:07:03.522Z,24.48
2023-01-23T04:09:31.608Z,21.90
2023-01-23T04:11:59.402Z,25.17
2023-01-23T04:14:30.506Z,30.60
2023-01-23T04:16:59.321Z,24.88
2023-01-23T04:19:27.671Z,25.02
2023-01-23T04:21:54.656Z,21.10
2023-01-23T04:24:21.660Z,21.42
2023-01-23T04:26:48.595Z,22.02
2023-01-23T04:29:17.213Z,27.17
2023-01-23T04:31:44.686Z,22.17
2023-01-23T04:34:13.255Z,23.73
2023-01-23T04:36:43.167Z,22.27
2023-01-23T04:39:10.203Z,24.30
2023-01-23T04:41:39.209Z,30.77
2023-01-23T04:44:23.007Z,21.92
2023-01-23T04:47:09.375Z,23.92
2023-01-23T04:49:36.530Z,30.83
2023-01-23T04:52:05.075Z,25.77
2023-01-23T04:54:36.536Z,25.67
2023-01-23T04:57:04.921Z,25.75
2023-01-23T04:59:33.381Z,21.17
2023-01-23T05:02:02.347Z,29.33
2023-01-23T05:04:36.346Z,29.50
2023-01-23T05:07:05.171Z,22.27
2023-01-23T05:09:38.171Z,23.20
2023-01-23T05:12:05.742Z,24.30
2023-01-23T05:14:35.614Z,29.00
2023-01-23T05:17:02.628Z,22.70
2023-01-23T05:19:34.003Z,23.90
2023-01-23T05:22:04.791Z,21.83
2023-01-23T05:24:31.748Z,27.63
2023-01-23T05:26:59.156Z,29.35
2023-01-23T05:29:29.614Z,29.40
2023-01-23T05:32:09.094Z,24.23
2023-01-23T05:34:41.298Z,27.20
2023-01-23T05:37:20.473Z,21.77
2023-01-23T05:39:51.642Z,23.40
2023-01-23T05:42:19.736Z,21.88
2023-01-23T05:44:49.294Z,28.38
2023-01-23T05:47:28.438Z,22.02
2023-01-23T05:49:56.676Z,27.70
2023-01-23T05:52:28.837Z,23.63
2023-01-23T05:54:56.373Z,27.20
2023-01-23T05:57:23.437Z,28.83
2023-01-23T06:00:16.255Z,29.67
2023-01-23T06:02:50.242Z,33.55
2023-01-23T06:05:37.922Z,29.67
2023-01-23T06:08:15.094Z,25.27
2023-01-23T06:10:42.742Z,26.02
2023-01-23T06:13:09.728Z,33.92
2023-01-23T06:15:37.362Z,34.15
2023-01-23T06:18:09.219Z,30.73
2023-01-23T06:20:36.211Z,32.22
2023-01-23T06:23:03.561Z,30.27
2023-01-23T06:25:31.967Z,22.15
2023-01-23T06:28:02.281Z,30.05
2023-01-23T06:30:31.960Z,20.80
2023-01-23T06:32:59.735Z,23.85
2023-01-23T06:35:33.813Z,22.70
2023-01-23T06:38:01.708Z,29.27
2023-01-23T06:40:29.094Z,25.70
2023-01-23T06:43:17.617Z,18.77
2023-01-23T06:45:45.310Z,21.17
2023-01-23T06:48:12.908Z,25.98
2023-01-23T06:50:42.204Z,22.13
2023-01-23T06:53:11.870Z,23.55
2023-01-23T06:55:38.992Z,31.23
2023-01-23T06:58:06.037Z,24.75
2023-01-23T07:00:34.489Z,20.90
2023-01-23T07:03:03.897Z,23.60
2023-01-23T07:05:31.849Z,27.00
2023-01-23T07:07:58.777Z,25.60
2023-01-23T07:10:26.465Z,21.20
2023-01-23T07:12:53.497Z,33.55
2023-01-23T07:15:20.644Z,32.33
2023-01-23T07:17:50.118Z,30.92
2023-01-23T07:20:17.398Z,26.02
2023-01-23T07:22:51.064Z,26.75
2023-01-23T07:25:18.154Z,25.15
2023-01-23T07:27:45.123Z,30.75
2023-01-23T07:30:12.713Z,23.20
2023-01-23T07:32:39.642Z,22.30
2023-01-23T07:35:09.588Z,21.77
2023-01-23T07:37:36.619Z,23.17
2023-01-23T07:40:04.033Z,25.85
2023-01-23T07:42:31.059Z,26.15
2023-01-23T07:44:57.955Z,23.40
2023-01-23T07:47:24.990Z,26.17
2023-01-23T07:49:51.925Z,25.52
2023-01-23T07:52:20.310Z,24.75
2023-01-23T07:54:47.249Z,32.58
2023-01-23T07:57:14.151Z,29.45
2023-01-23T07:59:41.072Z,26.58
2023-01-23T08:02:09.634Z,25.00
2023-01-23T08:04:37.241Z,25.30
2023-01-23T08:07:04.672Z,32.35
2023-01-23T08:09:32.991Z,32.80
2023-01-23T08:11:59.945Z,25.75
2023-01-23T08:14:27.012Z,27.48
2023-01-23T08:16:54.646Z,27.58
2023-01-23T08:19:21.660Z,28.02
2023-01-23T08:21:48.594Z,30.15
2023-01-23T08:24:15.507Z,26.52
2023-01-23T08:26:43.819Z,28.00
2023-01-23T08:29:11.679Z,29.33
2023-01-23T08:31:38.755Z,22.13
2023-01-23T08:34:06.034Z,20.27
2023-01-23T08:36:33.191Z,31.38
2023-01-23T08:39:00.478Z,31.58
2023-01-23T08:41:27.445Z,32.70
2023-01-23T08:43:57.586Z,26.85
2023-01-23T08:46:24.572Z,25.77
2023-01-23T08:48:51.467Z,27.20
2023-01-23T08:51:19.085Z,17.90
2023-01-23T08:53:46.043Z,20.63
2023-01-23T08:56:16.964Z,20.27
2023-01-23T08:58:44.504Z,28.75
2023-01-23T09:01:13.797Z,23.98
2023-01-23T09:03:40.773Z,23.63
2023-01-23T09:06:09.969Z,20.63
2023-01-23T09:08:36.898Z,22.42
2023-01-23T09:11:05.711Z,16.77
2023-01-23T09:13:33.027Z,20.67
2023-01-23T09:16:00.385Z,19.98
2023-01-23T09:18:28.963Z,24.80
2023-01-23T09:20:56.109Z,29.48
2023-01-23T09:23:23.667Z,17.60
2023-01-23T09:25:52.013Z,42.63
2023-01-23T09:28:18.935Z,17.40
2023-01-23T09:30:45.962Z,18.73
2023-01-23T09:33:16.541Z,23.35
2023-01-23T09:35:46.284Z,23.58
2023-01-23T09:38:13.614Z,25.17
2023-01-23T09:40:49.263Z,28.02
2023-01-23T09:43:23.135Z,20.92
2023-01-23T09:45:59.074Z,26.17
2023-01-23T09:48:30.660Z,20.77
2023-01-23T09:51:05.567Z,19.23
2023-01-23T09:53:37.294Z,31.10
2023-01-23T09:56:10.714Z,17.10
2023-01-23T09:58:41.397Z,18.83
2023-01-23T10:01:12.120Z,23.10
2023-01-23T10:03:39.626Z,21.30
2023-01-23T10:06:20.944Z,23.67
2023-01-23T10:09:01.217Z,23.05
2023-01-23T10:11:36.463Z,24.88
2023-01-23T10:14:21.015Z,28.55
2023-01-23T10:17:06.352Z,23.65
2023-01-23T10:19:51.402Z,21.35
2023-01-23T10:22:34.506Z,17.50
2023-01-23T10:25:09.886Z,18.02
2023-01-23T10:30:19.673Z,20.27
2023-01-23T10:32:51.304Z,22.95
2023-01-23T10:35:22.750Z,17.95
2023-01-23T10:38:01.802Z,25.23
2023-01-23T10:40:47.635Z,20.73
2023-01-23T10:43:16.716Z,19.77
2023-01-23T10:45:45.389Z,22.48
2023-01-23T10:48:29.495Z,25.08
2023-01-23T10:50:56.594Z,22.88
2023-01-23T10:53:25.888Z,23.63
2023-01-23T10:55:57.007Z,19.55
2023-01-23T10:58:31.813Z,20.98
2023-01-23T11:00:59.749Z,22.77
2023-01-23T11:03:29.611Z,34.38
2023-01-23T11:06:01.096Z,24.88
2023-01-23T11:08:32.075Z,20.27
2023-01-23T11:11:29.194Z,19.50
2023-01-23T11:14:14.293Z,23.42
2023-01-23T11:16:41.378Z,22.90
2023-01-23T11:19:23.131Z,18.13
2023-01-23T11:21:55.992Z,19.85
2023-01-23T11:24:39.639Z,17.75
2023-01-23T11:27:18.960Z,20.80
2023-01-23T11:30:01.337Z,25.88
2023-01-23T11:32:30.915Z,19.20
2023-01-23T11:35:10.905Z,19.10
2023-01-23T11:37:40.993Z,21.60
2023-01-23T11:40:13.737Z,23.83
2023-01-23T11:42:42.833Z,18.35
2023-01-23T11:45:14.969Z,21.55
2023-01-23T11:47:55.409Z,15.65
2023-01-23T11:50:41.087Z,19.05
2023-01-23T11:53:30.681Z,23.58
2023-01-23T11:56:34.069Z,21.63
2023-01-23T11:59:31.632Z,21.42
2023-01-23T12:02:21.753Z,29.38
2023-01-23T12:05:05.913Z,26.75
2023-01-23T12:07:41.454Z,17.08
2023-01-23T12:10:17.962Z,20.15
2023-01-23T12:13:04.876Z,19.92
2023-01-23T12:15:42.964Z,21.25
2023-01-23T12:18:22.079Z,20.95
2023-01-23T12:20:56.677Z,30.75
2023-01-23T12:23:37.766Z,21.67
2023-01-23T12:26:13.824Z,20.15
2023-01-23T12:29:00.387Z,21.55
2023-01-23T12:31:43.570Z,26.38
2023-01-23T12:34:28.264Z,26.90
2023-01-23T12:37:30.734Z,20.13
2023-01-23T12:40:08.666Z,21.17
2023-01-23T12:42:41.514Z,20.98
2023-01-23T12:45:21.884Z,27.45
2023-01-23T12:47:55.503Z,24.13
2023-01-23T12:50:28.997Z,22.17
2023-01-23T12:53:00.600Z,27.10
2023-01-23T12:55:33.016Z,21.77
2023-01-23T12:58:09.030Z,25.98
2023-01-23T13:00:52.040Z,25.35
2023-01-23T13:03:44.875Z,22.27
2023-01-23T13:06:34.949Z,16.23
2023-01-23T13:09:18.475Z,21.73
2023-01-23T13:11:56.107Z,22.88
2023-01-23T13:14:27.088Z,20.60
2023-01-23T13:19:50.795Z,21.25
2023-01-23T13:22:29.027Z,22.40
2023-01-23T13:25:12.527Z,21.02
2023-01-23T13:27:49.498Z,20.65
2023-01-23T13:30:59.330Z,18.52
2023-01-23T13:33:58.691Z,19.38
2023-01-23T13:36:33.827Z,20.33
2023-01-23T13:39:24.441Z,24.65
2023-01-23T13:42:43.065Z,21.10
2023-01-23T13:45:28.726Z,26.95
2023-01-23T14:23:27.349Z,19.90
2023-01-23T14:25:56.164Z,21.25
2023-01-23T14:28:23.234Z,25.27
2023-01-23T14:30:54.492Z,17.38
2023-01-23T14:33:21.757Z,21.70
2023-01-23T14:35:49.216Z,23.65
2023-01-23T14:38:23.407Z,22.48
2023-01-23T14:40:51.392Z,18.70
2023-01-23T14:43:22.662Z,30.25
2023-01-23T14:45:57.927Z,23.23
2023-01-23T14:51:02.101Z,20.52
2023-01-23T14:53:29.172Z,21.95
2023-01-23T14:55:59.900Z,31.27
2023-01-23T14:58:28.889Z,20.73
2023-01-23T15:00:57.001Z,27.77
2023-01-23T15:03:41.954Z,29.15
2023-01-23T15:06:13.283Z,35.22
2023-01-23T15:08:41.507Z,24.85
2023-01-23T15:11:12.077Z,25.35
2023-01-23T15:13:47.430Z,29.17
2023-01-23T15:16:18.967Z,27.95
2023-01-23T15:18:53.778Z,30.83
2023-01-23T15:21:28.175Z,25.88
2023-01-23T15:24:17.313Z,27.27
2023-01-23T15:26:45.737Z,31.20
2023-01-23T15:29:21.071Z,33.55
2023-01-23T15:34:30.678Z,25.08
2023-01-23T15:37:01.891Z,25.08
2023-01-23T15:39:30.856Z,29.38
2023-01-23T15:41:59.970Z,33.38
2023-01-23T15:44:30.358Z,25.30
2023-01-23T15:47:01.041Z,31.13
2023-01-23T15:49:28.356Z,32.97
2023-01-23T15:51:56.426Z,33.20
2023-01-23T15:54:28.302Z,30.83
2023-01-23T15:57:06.597Z,32.88
2023-01-23T15:59:36.668Z,30.83
2023-01-23T16:02:04.114Z,36.58
2023-01-23T16:04:31.120Z,36.63
2023-01-23T16:07:00.285Z,58.92
2023-01-23T16:09:31.433Z,27.60
2023-01-23T16:11:59.903Z,37.67
2023-01-23T16:14:27.076Z,32.10
2023-01-23T16:16:58.273Z,27.48
2023-01-23T16:19:31.594Z,28.88
2023-01-23T16:22:04.519Z,45.08
2023-01-23T16:24:37.468Z,30.50
2023-01-23T16:27:04.798Z,42.92
2023-01-23T16:29:33.164Z,30.73
2023-01-23T16:32:03.298Z,30.60
2023-01-23T16:34:30.372Z,37.60
2023-01-23T16:36:59.408Z,40.80
2023-01-23T16:39:29.635Z,34.60
2023-01-23T16:41:56.736Z,27.55
2023-01-23T16:44:24.100Z,33.83
2023-01-23T16:46:52.226Z,27.42
2023-01-23T16:49:21.134Z,35.67
2023-01-23T16:51:56.503Z,34.28
2023-01-23T16:56:51.679Z,28.63
2023-01-23T16:59:26.409Z,34.40
2023-01-23T17:01:53.735Z,35.95
2023-01-23T17:04:22.568Z,36.10
2023-01-23T17:06:50.145Z,37.85
2023-01-23T17:09:17.739Z,33.13
2023-01-23T17:11:48.618Z,31.40
2023-01-23T17:14:17.818Z,30.58
2023-01-23T17:16:47.182Z,33.97
2023-01-23T17:19:21.263Z,32.67
2023-01-23T17:21:50.148Z,41.13
2023-01-23T17:24:17.797Z,38.38
2023-01-23T17:26:45.272Z,39.95
2023-01-23T17:29:12.538Z,41.10
2023-01-23T17:31:39.819Z,37.10
2023-01-23T17:34:10.773Z,41.35
2023-01-23T17:36:37.770Z,38.83
2023-01-23T17:39:08.632Z,47.10
2023-01-23T17:41:35.604Z,45.35
2023-01-23T17:44:02.584Z,45.50
2023-01-23T17:46:32.698Z,47.28
2023-01-23T17:49:00.057Z,42.90
2023-01-23T17:51:27.105Z,41.13
2023-01-23T17:53:55.053Z,34.83
2023-01-23T17:56:23.416Z,35.47
2023-01-23T17:58:50.504Z,40.67
2023-01-23T18:01:19.943Z,34.10
2023-01-23T18:03:46.983Z,38.95
2023-01-23T18:06:14.459Z,32.30
2023-01-23T18:08:42.381Z,27.10
2023-01-23T18:11:17.963Z,32.72
2023-01-23T18:13:58.341Z,34.08
2023-01-23T18:16:31.441Z,27.80
2023-01-23T18:19:01.389Z,26.45
2023-01-23T18:21:29.492Z,31.65
2023-01-23T18:23:57.675Z,27.40
2023-01-23T18:26:43.668Z,26.60
2023-01-23T18:29:24.390Z,27.17
2023-01-23T18:32:34.427Z,28.55
2023-01-23T18:35:08.187Z,21.05
2023-01-23T18:37:45.345Z,29.90
2023-01-23T18:40:17.441Z,36.83
2023-01-23T18:42:54.939Z,28.00
2023-01-23T18:45:27.643Z,29.60
2023-01-23T18:47:55.981Z,26.50
2023-01-23T18:50:25.310Z,25.67
2023-01-23T18:53:07.184Z,25.58
2023-01-23T18:55:40.892Z,23.42
2023-01-23T18:58:29.891Z,20.52
2023-01-23T19:01:15.051Z,23.92
2023-01-23T19:03:46.158Z,21.42
2023-01-23T19:06:20.460Z,21.25
2023-01-23T19:08:50.589Z,20.27
2023-01-23T19:11:32.834Z,24.27
2023-01-23T19:14:12.450Z,22.20
2023-01-23T19:16:45.724Z,25.02
2023-01-23T19:19:21.736Z,21.25
2023-01-23T19:21:49.440Z,25.80
2023-01-23T19:24:19.562Z,20.73
2023-01-23T19:26:48.562Z,24.17
2023-01-23T19:29:22.733Z,23.75
2023-01-23T19:32:07.225Z,23.13
2023-01-23T19:34:36.022Z,19.85
2023-01-23T19:37:04.393Z,20.08
2023-01-23T19:39:32.694Z,19.60
2023-01-23T19:42:01.873Z,23.13
2023-01-23T19:44:31.254Z,18.77
2023-01-23T19:47:00.077Z,23.25
2023-01-23T19:49:27.297Z,27.35
2023-01-23T19:51:54.281Z,20.40
2023-01-23T19:54:24.377Z,27.13
2023-01-23T19:56:51.533Z,25.83
2023-01-23T19:59:20.142Z,25.98
2023-01-23T20:01:50.450Z,21.27
2023-01-23T20:04:21.291Z,19.73
2023-01-23T20:06:55.377Z,26.50
2023-01-23T20:09:22.848Z,23.92
2023-01-23T20:11:50.906Z,22.73
2023-01-23T20:14:18.645Z,21.70
2023-01-23T20:16:45.851Z,27.58
2023-01-23T20:19:15.239Z,26.40
2023-01-23T20:21:45.114Z,20.38
2023-01-23T20:24:13.353Z,28.27
2023-01-23T20:26:41.266Z,25.88
2023-01-23T20:29:09.517Z,22.33
2023-01-23T20:31:37.625Z,26.25
2023-01-23T20:34:04.808Z,23.88
2023-01-23T20:36:31.785Z,33.17
2023-01-23T20:39:00.223Z,24.02
2023-01-23T20:41:27.699Z,18.52
2023-01-23T20:43:54.676Z,24.00
2023-01-23T20:46:21.761Z,23.23
2023-01-23T20:48:48.884Z,25.90
2023-01-23T20:51:16.737Z,22.48
2023-01-23T20:53:44.535Z,24.60
2023-01-23T20:56:14.721Z,19.77
2023-01-23T20:59:02.251Z,18.85
2023-01-23T21:01:30.999Z,18.30
2023-01-23T21:03:58.325Z,19.00
2023-01-23T21:06:25.356Z,20.42
2023-01-23T21:08:52.289Z,18.40
2023-01-23T21:11:20.947Z,18.80
2023-01-23T21:13:51.782Z,18.05
2023-01-23T21:16:19.519Z,17.70
2023-01-23T21:18:47.098Z,17.75
2023-01-23T21:21:15.848Z,15.50
2023-01-23T21:23:43.483Z,18.00
2023-01-23T21:26:10.409Z,16.13
2023-01-23T21:28:41.297Z,17.48
2023-01-23T21:31:09.673Z,17.15
2023-01-23T21:33:36.979Z,13.93
2023-01-23T21:36:04.386Z,14.10
2023-01-23T21:38:31.326Z,13.32
2023-01-23T21:40:58.350Z,14.48
2023-01-23T21:43:25.609Z,13.40
2023-01-23T21:45:53.950Z,12.68
2023-01-23T21:48:21.891Z,13.57
2023-01-23T21:50:48.792Z,12.65
2023-01-23T21:53:15.774Z,15.10
2023-01-23T21:55:42.678Z,18.73
2023-01-23T21:58:09.600Z,15.45
2023-01-23T22:00:55.370Z,20.58
2023-01-23T22:03:23.737Z,19.98
2023-01-23T22:05:50.701Z,18.73
2023-01-23T22:08:18.011Z,15.88
2023-01-23T22:10:44.902Z,18.77
2023-01-23T22:13:11.850Z,15.80
2023-01-23T22:15:39.219Z,14.82
2023-01-23T22:18:06.231Z,17.27
2023-01-23T22:20:37.160Z,13.52
2023-01-23T22:23:04.228Z,18.20
2023-01-23T22:25:31.458Z,15.00
2023-01-23T22:27:58.478Z,14.50
2023-01-23T22:30:25.966Z,19.17
2023-01-23T22:32:52.883Z,17.92
2023-01-23T22:35:20.059Z,14.75
2023-01-23T22:37:48.604Z,18.35
2023-01-23T22:40:15.855Z,20.02
2023-01-23T22:42:42.772Z,17.70
2023-01-23T22:45:10.809Z,18.08
2023-01-23T22:47:37.707Z,18.35
2023-01-23T22:50:05.367Z,22.27
2023-01-23T22:52:32.332Z,23.42
2023-01-23T22:55:00.619Z,23.42
2023-01-23T22:57:27.731Z,21.60
2023-01-23T22:59:54.646Z,24.45
2023-01-23T23:02:21.543Z,19.95
2023-01-23T23:04:49.982Z,23.85
2023-01-23T23:07:16.935Z,19.88
2023-01-23T23:09:44.490Z,16.95
2023-01-23T23:12:13.505Z,24.23
2023-01-23T23:14:40.480Z,16.98
2023-01-23T23:17:07.479Z,17.45
2023-01-23T23:19:34.543Z,14.05
2023-01-23T23:22:01.442Z,14.48
2023-01-23T23:24:28.382Z,20.65
2023-01-23T23:26:55.394Z,13.57
2023-01-23T23:29:23.882Z,15.30
2023-01-23T23:31:52.111Z,14.80
2023-01-23T23:34:19.356Z,14.93
2023-01-23T23:36:46.358Z,14.35
2023-01-23T23:39:13.365Z,12.00
2023-01-23T23:41:40.307Z,15.18
2023-01-23T23:44:07.210Z,13.43
2023-01-23T23:46:35.514Z,12.43
2023-01-23T23:49:02.645Z,10.05
2023-01-23T23:51:29.560Z,10.32
2023-01-23T23:53:56.556Z,10.45
2023-01-23T23:56:26.086Z,8.82
2023-01-23T23:58:53.863Z,9.60
